Time;durP1;ratioP1;P1;durP2;ratioP2;P2;SDS_P1;SDS_P2;PMS_P1;PMS_P2;Temp;Humidity;BMP_temperature;BMP_pressure;BME280_temperature;BME280_humidity;BME280_pressure;Samples;Min_cycle;Max_cycle;Signal;HPM_P1;HPM_P2
2023/10/27 00:02:12;;;;;;;;;;;;;;;;;;5015761;28;4564;-60
2023/10/27 00:04:38;;;;;;;;;;;;;;;;;;5005828;28;4465;-60
2023/10/27 00:13:20;;;;;;;;;;;;;;;;;;5018764;28;4511;-60
2023/10/27 00:15:46;;;;;;;;;;;;;;;;;;5004950;28;5187;-60
2023/10/27 00:18:11;;;;;;;;;;;;;;;;;;5010082;28;4503;-59
2023/10/27 00:20:37;;;;;;;;;;;;;;;;;;5025976;28;1976;-58
2023/10/27 00:23:02;;;;;;;;;;;;;;;;;;5008585;28;4640;-60
2023/10/27 00:25:27;;;;;;;;;;;;;;;;;;5025079;28;4620;-60
2023/10/27 00:27:52;;;;;;;;;;;;;;;;;;5034622;28;4585;-60
2023/10/27 00:30:18;;;;;;;;;;;;;;;;;;5037880;28;5057;-60
2023/10/27 00:32:43;;;;;;;;;;;;;;;;;;5009093;28;1151;-60
2023/10/27 00:35:09;;;;;;;;;;;;;;;;;;5027028;28;4974;-60
2023/10/27 00:37:35;;;;;;;;;;;;;;;;;;5015692;28;4620;-60
2023/10/27 00:43:05;;;;;;;;;;;;;;;;;;5002433;28;4501;-60
2023/10/27 00:45:31;;;;;;;;;;;;;;;;;;5007235;28;4932;-60
2023/10/27 00:47:56;;;;;;;;;;;;;;;;;;5011672;28;4578;-64
2023/10/27 00:50:21;;;;;;;;;;;;;;;;;;5010692;28;3020;-59
2023/10/27 00:52:47;;;;;;;;;;;;;;;;;;5007824;28;5058;-60
2023/10/27 00:55:12;;;;;;;;;;;;;;;;;;5028905;28;4506;-60
2023/10/27 01:00:40;;;;;;;;;;;;;;;;;;5008087;28;5106;-60
2023/10/27 01:03:35;;;;;;;;;;;;;;;;;;5022498;28;4591;-60
2023/10/27 01:06:00;;;;;;;;;;;;;;;;;;5006794;28;5075;-60
2023/10/27 01:08:26;;;;;;;;;;;;;;;;;;5012856;28;2232;-60
2023/10/27 01:10:51;;;;;;;;;;;;;;;;;;5025095;28;4621;-59
2023/10/27 01:13:16;;;;;;;;;;;;;;;;;;5006983;28;4783;-58
2023/10/27 01:15:50;;;;;;;;;;;;;;;;;;5010959;28;4983;-59
2023/10/27 01:18:27;;;;;;;;;;;;;;;;;;5012939;28;5045;-59
2023/10/27 01:20:52;;;;;;;;;;;;;;;;;;5011070;28;5130;-58
2023/10/27 01:23:23;;;;;;;;;;;;;;;;;;5012701;28;1240;-59
2023/10/27 01:25:48;;;;;;;;;;;;;;;;;;5019398;28;4930;-59
2023/10/27 01:28:14;;;;;;;;;;;;;;;;;;5026150;28;5041;-59
2023/10/27 01:30:39;;;;;;;;;;;;;;;;;;5013188;28;4647;-59
2023/10/27 01:33:05;;;;;;;;;;;;;;;;;;5032465;28;5024;-59
2023/10/27 01:35:30;;;;;;;;;;;;;;;;;;5021464;28;1122;-59
2023/10/27 01:37:55;;;;;;;;;;;;;;;;;;5014123;28;4669;-58
2023/10/27 01:40:21;;;;;;;;;;;;;;;;;;5013971;28;5339;-59
2023/10/27 01:42:46;;;;;;;;;;;;;;;;;;5016002;28;4449;-59
2023/10/27 01:45:13;;;;;;;;;;;;;;;;;;5024962;28;4539;-60
2023/10/27 01:47:39;;;;;;;;;;;;;;;;;;5018673;28;1365;-60
2023/10/27 01:50:05;;;;;;;;;;;;;;;;;;5027508;28;5098;-58
2023/10/27 01:52:39;;;;;;;;;;;;;;;;;;5015999;28;4691;-58
2023/10/27 01:55:20;;;;;;;;;;;;;;;;;;5016418;28;4662;-58
2023/10/27 01:57:45;;;;;;;;;;;;;;;;;;5030577;28;4608;-58
2023/10/27 02:00:20;;;;;;;;;;;;;;;;;;5013836;28;5125;-59
2023/10/27 02:02:51;;;;;;;;;;;;;;;;;;5035607;28;1201;-60
2023/10/27 02:05:16;;;;;;;;;;;;;;;;;;5029033;28;5143;-60
2023/10/27 02:07:42;;;;;;;;;;;;;;;;;;5051038;28;4923;-60
2023/10/27 02:10:07;;;;;;;;;;;;;;;;;;5015517;28;4926;-61
2023/10/27 02:12:47;;;;;;;;;;;;;;;;;;5014439;28;5949;-60
2023/10/27 02:15:12;;;;;;;;;;;;;;;;;;5014558;28;4886;-60
2023/10/27 02:17:39;;;;;;;;;;;;;;;;;;5034197;28;1072;-60
2023/10/27 02:23:07;;;;;;;;;;;;;;;;;;5035972;28;4518;-60
2023/10/27 02:25:32;;;;;;;;;;;;;;;;;;5020547;28;4996;-60
2023/10/27 02:27:57;;;;;;;;;;;;;;;;;;5024463;28;4519;-60
2023/10/27 02:30:22;;;;;;;;;;;;;;;;;;5027588;28;5006;-60
2023/10/27 02:32:48;;;;;;;;;;;;;;;;;;5012564;28;2858;-59
2023/10/27 02:35:13;;;;;;;;;;;;;;;;;;4992917;28;4997;-60
2023/10/27 02:37:38;;;;;;;;;;;;;;;;;;5015125;28;5055;-60
2023/10/27 02:40:04;;;;;;;;;;;;;;;;;;5017095;28;4646;-60
2023/10/27 02:42:29;;;;;;;;;;;;;;;;;;5027057;28;4843;-60
2023/10/27 02:44:54;;;;;;;;;;;;;;;;;;5033633;28;4462;-60
2023/10/27 02:47:19;;;;;;;;;;;;;;;;;;5031194;28;2693;-61
2023/10/27 02:49:45;;;;;;;;;;;;;;;;;;5022941;28;5014;-60
2023/10/27 02:52:11;;;;;;;;;;;;;;;;;;5015541;28;5101;-60
2023/10/27 02:54:36;;;;;;;;;;;;;;;;;;5014804;28;4902;-60
2023/10/27 02:57:01;;;;;;;;;;;;;;;;;;5026005;28;4767;-60
2023/10/27 02:59:36;;;;;;;;;;;;;;;;;;5036508;28;1914;-60
2023/10/27 03:02:02;;;;;;;;;;;;;;;;;;5015520;28;5067;-60
2023/10/27 03:04:27;;;;;;;;;;;;;;;;;;5009678;28;4744;-60
2023/10/27 03:06:52;;;;;;;;;;;;;;;;;;4992128;28;5013;-59
2023/10/27 03:09:18;;;;;;;;;;;;;;;;;;5016628;28;4798;-60
2023/10/27 03:11:43;;;;;;;;;;;;;;;;;;5014594;28;1126;-60
2023/10/27 03:14:08;;;;;;;;;;;;;;;;;;5015015;28;5654;-59
2023/10/27 03:16:34;;;;;;;;;;;;;;;;;;5013655;28;5169;-60
2023/10/27 03:19:06;;;;;;;;;;;;;;;;;;5009937;28;5167;-59
2023/10/27 03:21:37;;;;;;;;;;;;;;;;;;5034742;28;4991;-60
2023/10/27 03:30:08;;;;;;;;;;;;;;;;;;5016405;28;5147;-60
2023/10/27 03:35:53;;;;;;;;;;;;;;;;;;5021272;28;4561;-60
2023/10/27 03:38:40;;;;;;;;;;;;;;;;;;5013584;28;6269;-59
2023/10/27 03:41:06;;;;;;;;;;;;;;;;;;5032232;28;4637;-60
2023/10/27 03:49:43;;;;;;;;;;;;;;;;;;5019434;28;5130;-60
2023/10/27 03:52:11;;;;;;;;;;;;;;;;;;5018174;28;5055;-60
2023/10/27 03:54:37;;;;;;;;;;;;;;;;;;5022213;28;5166;-60
2023/10/27 04:03:22;;;;;;;;;;;;;;;;;;5012721;28;5592;-60
2023/10/27 04:05:48;;;;;;;;;;;;;;;;;;5002096;28;2584;-61
2023/10/27 04:08:13;;;;;;;;;;;;;;;;;;4994847;28;5028;-59
2023/10/27 04:10:38;;;;;;;;;;;;;;;;;;5014563;28;4922;-60
2023/10/27 04:16:31;;;;;;;;;;;;;;;;;;5018261;28;5095;-59
2023/10/27 04:18:57;;;;;;;;;;;;;;;;;;5027342;28;5086;-59
2023/10/27 04:21:22;;;;;;;;;;;;;;;;;;5013871;28;4995;-59
2023/10/27 04:23:48;;;;;;;;;;;;;;;;;;5013891;28;1108;-59
2023/10/27 04:26:38;;;;;;;;;;;;;;;;;;5013880;28;4972;-60
2023/10/27 04:32:26;;;;;;;;;;;;;;;;;;5011188;28;5036;-60
2023/10/27 04:34:53;;;;;;;;;;;;;;;;;;5029385;28;4531;-59
2023/10/27 04:37:18;;;;;;;;;;;;;;;;;;5043393;28;4442;-59
2023/10/27 04:39:44;;;;;;;;;;;;;;;;;;5039479;28;5085;-60
2023/10/27 04:42:33;;;;;;;;;;;;;;;;;;5024430;28;4857;-59
2023/10/27 04:44:58;;;;;;;;;;;;;;;;;;5009468;28;5320;-60
2023/10/27 04:47:24;;;;;;;;;;;;;;;;;;5024631;28;1156;-59
2023/10/27 04:49:49;;;;;;;;;;;;;;;;;;5019195;28;5099;-59
2023/10/27 04:52:21;;;;;;;;;;;;;;;;;;5017152;28;5060;-59
2023/10/27 05:03:40;;;;;;;;;;;;;;;;;;5012368;28;4515;-59
2023/10/27 05:06:09;;;;;;;;;;;;;;;;;;5017731;28;4550;-60
2023/10/27 05:08:34;;;;;;;;;;;;;;;;;;5028314;28;1230;-60
2023/10/27 05:11:01;;;;;;;;;;;;;;;;;;5008087;28;4733;-60
2023/10/27 05:13:38;;;;;;;;;;;;;;;;;;5005301;28;4755;-60
2023/10/27 05:16:04;;;;;;;;;;;;;;;;;;5011850;28;4789;-59
2023/10/27 05:18:29;;;;;;;;;;;;;;;;;;5016187;28;5149;-59
2023/10/27 05:20:55;;;;;;;;;;;;;;;;;;5006629;28;5622;-59
2023/10/27 05:23:26;;;;;;;;;;;;;;;;;;5016308;28;2098;-60
2023/10/27 05:25:52;;;;;;;;;;;;;;;;;;5010764;28;4593;-59
2023/10/27 05:28:18;;;;;;;;;;;;;;;;;;5025935;28;4786;-59
2023/10/27 05:30:46;;;;;;;;;;;;;;;;;;5015952;28;4849;-67
2023/10/27 05:33:11;;;;;;;;;;;;;;;;;;4993768;28;4703;-60
2023/10/27 05:35:38;;;;;;;;;;;;;;;;;;5013141;28;991;-59
2023/10/27 05:38:06;;;;;;;;;;;;;;;;;;5013045;28;4848;-59
2023/10/27 05:40:33;;;;;;;;;;;;;;;;;;5010914;28;4570;-59
2023/10/27 05:42:58;;;;;;;;;;;;;;;;;;5012670;28;5094;-60
2023/10/27 05:45:24;;;;;;;;;;;;;;;;;;5014232;28;5190;-59
2023/10/27 05:50:58;;;;;;;;;;;;;;;;;;5010653;28;5100;-59
2023/10/27 05:53:41;;;;;;;;;;;;;;;;;;5014672;28;961;-60
2023/10/27 05:56:06;;;;;;;;;;;;;;;;;;5013377;28;4436;-60
2023/10/27 06:01:34;;;;;;;;;;;;;;;;;;5014450;28;4459;-60
2023/10/27 06:07:19;;;;;;;;;;;;;;;;;;5016813;28;5219;-60
2023/10/27 06:09:49;;;;;;;;;;;;;;;;;;5010877;28;4904;-60
2023/10/27 06:12:15;;;;;;;;;;;;;;;;;;5013318;28;4606;-60
2023/10/27 06:14:44;;;;;;;;;;;;;;;;;;4999256;28;1378;-60
2023/10/27 06:17:10;;;;;;;;;;;;;;;;;;5025425;28;5002;-61
2023/10/27 06:19:36;;;;;;;;;;;;;;;;;;5011950;28;4846;-60
2023/10/27 06:22:01;;;;;;;;;;;;;;;;;;5011914;28;4827;-61
2023/10/27 06:24:26;;;;;;;;;;;;;;;;;;5010699;28;5017;-60
2023/10/27 06:26:51;;;;;;;;;;;;;;;;;;5010464;28;4654;-60
2023/10/27 06:29:18;;;;;;;;;;;;;;;;;;5017873;28;1394;-60
2023/10/27 06:31:48;;;;;;;;;;;;;;;;;;5046281;28;5523;-60
2023/10/27 06:34:13;;;;;;;;;;;;;;;;;;5014197;28;4460;-61
2023/10/27 06:36:39;;;;;;;;;;;;;;;;;;5034053;28;4689;-60
2023/10/27 06:39:04;;;;;;;;;;;;;;;;;;5031994;28;5049;-61
2023/10/27 06:41:29;;;;;;;;;;;;;;;;;;5014550;28;1185;-61
2023/10/27 06:43:55;;;;;;;;;;;;;;;;;;5012218;28;4642;-61
2023/10/27 06:46:20;;;;;;;;;;;;;;;;;;5037002;28;5042;-60
2023/10/27 06:48:45;;;;;;;;;;;;;;;;;;5037493;28;4982;-61
2023/10/27 06:51:11;;;;;;;;;;;;;;;;;;5019466;28;4512;-61
2023/10/27 06:53:36;;;;;;;;;;;;;;;;;;5007060;28;1695;-61
2023/10/27 06:56:01;;;;;;;;;;;;;;;;;;5013054;28;5223;-60
2023/10/27 07:01:54;;;;;;;;;;;;;;;;;;5019073;28;5227;-60
2023/10/27 07:04:19;;;;;;;;;;;;;;;;;;5035075;28;5064;-60
2023/10/27 07:06:44;;;;;;;;;;;;;;;;;;5027502;28;5110;-60
2023/10/27 07:09:09;;;;;;;;;;;;;;;;;;5011692;28;4694;-59
2023/10/27 07:17:45;;;;;;;;;;;;;;;;;;5013490;28;4727;-61
2023/10/27 07:20:13;;;;;;;;;;;;;;;;;;5014008;28;4927;-61
2023/10/27 07:22:39;;;;;;;;;;;;;;;;;;5027552;28;5006;-64
2023/10/27 07:25:04;;;;;;;;;;;;;;;;;;5017428;28;4944;-62
2023/10/27 07:27:29;;;;;;;;;;;;;;;;;;5034975;28;4856;-62
2023/10/27 07:39:04;;;;;;;;;;;;;;;;;;5008210;28;5105;-63
2023/10/27 07:41:37;;;;;;;;;;;;;;;;;;5013479;28;1058;-63
2023/10/27 07:44:03;;;;;;;;;;;;;;;;;;5012235;28;4571;-63
2023/10/27 07:50:00;;;;;;;;;;;;;;;;;;5014541;28;5073;-62
2023/10/27 07:52:47;;;;;;;;;;;;;;;;;;5030623;28;5073;-62
2023/10/27 07:55:12;;;;;;;;;;;;;;;;;;5031197;28;5025;-62
2023/10/27 07:57:38;;;;;;;;;;;;;;;;;;5019151;28;4657;-62
2023/10/27 08:00:04;;;;;;;;;;;;;;;;;;5029974;28;5152;-63
2023/10/27 08:02:32;;;;;;;;;;;;;;;;;;5019109;28;1388;-63
2023/10/27 08:04:58;;;;;;;;;;;;;;;;;;5013286;28;5151;-62
2023/10/27 08:10:26;;;;;;;;;;;;;;;;;;5012052;28;5086;-62
2023/10/27 08:12:51;;;;;;;;;;;;;;;;;;5020373;28;4629;-64
2023/10/27 08:15:16;;;;;;;;;;;;;;;;;;5017578;28;4667;-62
2023/10/27 08:17:42;;;;;;;;;;;;;;;;;;5035890;28;1204;-62
2023/10/27 08:20:07;;;;;;;;;;;;;;;;;;5011675;28;5059;-63
2023/10/27 08:22:32;;;;;;;;;;;;;;;;;;5013288;28;4653;-63
2023/10/27 08:24:58;;;;;;;;;;;;;;;;;;5014905;28;4961;-63
2023/10/27 08:27:23;;;;;;;;;;;;;;;;;;5013345;28;4748;-62
2023/10/27 08:29:52;;;;;;;;;;;;;;;;;;5018462;28;4575;-63
2023/10/27 08:32:17;;;;;;;;;;;;;;;;;;5022596;28;4928;-63
2023/10/27 08:34:43;;;;;;;;;;;;;;;;;;5005877;28;4908;-63
2023/10/27 08:40:11;;;;;;;;;;;;;;;;;;5012778;28;4843;-62
2023/10/27 08:43:05;;;;;;;;;;;;;;;;;;5034866;28;4642;-62
2023/10/27 08:46:08;;;;;;;;;;;;;;;;;;5012549;28;4985;-62
2023/10/27 08:48:33;;;;;;;;;;;;;;;;;;5016227;28;4650;-61
2023/10/27 08:51:02;;;;;;;;;;;;;;;;;;5009890;28;5028;-62
2023/10/27 08:56:32;;;;;;;;;;;;;;;;;;5024278;28;4633;-62
2023/10/27 08:58:58;;;;;;;;;;;;;;;;;;5005834;28;4602;-62
2023/10/27 09:04:34;;;;;;;;;;;;;;;;;;5008940;28;4483;-62
2023/10/27 09:13:09;;;;;;;;;;;;;;;;;;5006008;28;5006;-61
2023/10/27 09:15:41;;;;;;;;;;;;;;;;;;5022461;28;4944;-63
2023/10/27 09:18:06;;;;;;;;;;;;;;;;;;5012503;28;5072;-62
2023/10/27 09:20:50;;;;;;;;;;;;;;;;;;5026414;28;1910;-62
2023/10/27 09:23:16;;;;;;;;;;;;;;;;;;5008991;28;5035;-62
2023/10/27 09:25:46;;;;;;;;;;;;;;;;;;5012737;28;4961;-62
2023/10/27 09:28:27;;;;;;;;;;;;;;;;;;5013633;28;5064;-63
2023/10/27 09:33:55;;;;;;;;;;;;;;;;;;5014023;28;4585;-62
2023/10/27 09:36:20;;;;;;;;;;;;;;;;;;5018159;28;5071;-61
2023/10/27 09:38:46;;;;;;;;;;;;;;;;;;5032772;28;1047;-62
2023/10/27 09:41:12;;;;;;;;;;;;;;;;;;5033811;28;4415;-62
2023/10/27 09:49:42;;;;;;;;;;;;;;;;;;5012567;28;5098;-63
2023/10/27 09:52:09;;;;;;;;;;;;;;;;;;4993696;28;5099;-62
2023/10/27 09:54:35;;;;;;;;;;;;;;;;;;4995326;28;5137;-62
2023/10/27 09:57:00;;;;;;;;;;;;;;;;;;5028889;28;4971;-62
2023/10/27 09:59:26;;;;;;;;;;;;;;;;;;5014357;28;1911;-62
2023/10/27 10:01:51;;;;;;;;;;;;;;;;;;5013667;28;4722;-62
2023/10/27 10:04:40;;;;;;;;;;;;;;;;;;5012721;28;4668;-62
2023/10/27 10:07:10;;;;;;;;;;;;;;;;;;5011086;28;5087;-62
2023/10/27 10:09:42;;;;;;;;;;;;;;;;;;4997860;28;5113;-62
2023/10/27 10:12:29;;;;;;;;;;;;;;;;;;5019352;28;5192;-62
2023/10/27 10:14:54;;;;;;;;;;;;;;;;;;5014724;28;4984;-62
2023/10/27 10:17:35;;;;;;;;;;;;;;;;;;5018819;28;1581;-63
2023/10/27 10:26:06;;;;;;;;;;;;;;;;;;5057692;28;4418;-62
2023/10/27 10:28:34;;;;;;;;;;;;;;;;;;5003792;28;4525;-62
2023/10/27 10:31:17;;;;;;;;;;;;;;;;;;5014531;28;4935;-62
2023/10/27 10:33:44;;;;;;;;;;;;;;;;;;5014056;28;5124;-63
2023/10/27 10:36:22;;;;;;;;;;;;;;;;;;5017370;28;4591;-62
2023/10/27 10:38:53;;;;;;;;;;;;;;;;;;5020592;28;1044;-62
2023/10/27 10:41:18;;;;;;;;;;;;;;;;;;5022443;28;4569;-62
2023/10/27 10:43:44;;;;;;;;;;;;;;;;;;5027063;28;4675;-63
2023/10/27 10:46:12;;;;;;;;;;;;;;;;;;5025944;28;5155;-60
2023/10/27 10:48:45;;;;;;;;;;;;;;;;;;5014236;28;4891;-61
2023/10/27 10:51:15;;;;;;;;;;;;;;;;;;5012612;28;5067;-61
2023/10/27 10:53:41;;;;;;;;;;;;;;;;;;5017096;28;965;-61
2023/10/27 10:56:07;;;;;;;;;;;;;;;;;;5008533;28;4806;-61
2023/10/27 11:04:58;;;;;;;;;;;;;;;;;;5011220;28;5087;-61
2023/10/27 11:07:57;;;;;;;;;;;;;;;;;;5012340;28;5142;-61
2023/10/27 11:10:23;;;;;;;;;;;;;;;;;;5016021;28;5015;-60
2023/10/27 11:12:49;;;;;;;;;;;;;;;;;;4993463;28;5527;-60
2023/10/27 11:15:33;;;;;;;;;;;;;;;;;;5026308;28;4733;-61
2023/10/27 11:18:10;;;;;;;;;;;;;;;;;;5028683;28;5176;-60
2023/10/27 11:20:43;;;;;;;;;;;;;;;;;;5029649;28;1959;-61
2023/10/27 11:23:12;;;;;;;;;;;;;;;;;;5011728;28;4903;-61
2023/10/27 11:25:38;;;;;;;;;;;;;;;;;;5028594;28;5019;-61
2023/10/27 11:28:22;;;;;;;;;;;;;;;;;;5011651;28;4959;-61
2023/10/27 11:31:00;;;;;;;;;;;;;;;;;;5012053;28;5012;-62
2023/10/27 11:33:26;;;;;;;;;;;;;;;;;;5013032;28;4535;-61
2023/10/27 11:35:52;;;;;;;;;;;;;;;;;;5025932;28;5028;-61
2023/10/27 11:38:17;;;;;;;;;;;;;;;;;;5013703;28;1276;-61
2023/10/27 11:40:42;;;;;;;;;;;;;;;;;;5017932;28;5251;-61
2023/10/27 11:43:07;;;;;;;;;;;;;;;;;;5023842;28;4865;-61
2023/10/27 11:45:34;;;;;;;;;;;;;;;;;;5030085;28;4780;-61
2023/10/27 11:47:59;;;;;;;;;;;;;;;;;;5026628;28;5026;-61
2023/10/27 11:50:24;;;;;;;;;;;;;;;;;;5033003;28;1154;-62
2023/10/27 11:52:49;;;;;;;;;;;;;;;;;;5034690;28;5196;-62
2023/10/27 11:55:15;;;;;;;;;;;;;;;;;;5035143;28;5314;-61
2023/10/27 11:57:40;;;;;;;;;;;;;;;;;;5019474;28;5112;-61
2023/10/27 12:00:08;;;;;;;;;;;;;;;;;;5035531;28;4970;-61
2023/10/27 12:02:34;;;;;;;;;;;;;;;;;;5017244;28;1060;-61
2023/10/27 12:04:59;;;;;;;;;;;;;;;;;;5026691;28;4601;-60
2023/10/27 12:07:24;;;;;;;;;;;;;;;;;;5031089;28;5188;-62
2023/10/27 12:09:50;;;;;;;;;;;;;;;;;;5031825;28;5023;-62
2023/10/27 12:12:15;;;;;;;;;;;;;;;;;;5024600;28;4935;-62
2023/10/27 12:14:41;;;;;;;;;;;;;;;;;;5026944;28;1084;-61
2023/10/27 12:17:07;;;;;;;;;;;;;;;;;;5009157;28;4735;-61
2023/10/27 12:19:32;;;;;;;;;;;;;;;;;;5027788;28;5155;-61
2023/10/27 12:21:58;;;;;;;;;;;;;;;;;;5027447;28;5039;-61
2023/10/27 12:24:23;;;;;;;;;;;;;;;;;;5033967;28;5040;-61
2023/10/27 12:42:28;;;;;;;;;;;;;;;;;;5015876;28;5293;-61
2023/10/27 12:45:00;;;;;;;;;;;;;;;;;;5021806;28;4745;-61
2023/10/27 12:47:25;;;;;;;;;;;;;;;;;;5022756;28;1209;-62
2023/10/27 12:49:51;;;;;;;;;;;;;;;;;;5053057;28;4573;-62
2023/10/27 12:55:29;;;;;;;;;;;;;;;;;;5034578;28;5113;-62
2023/10/27 12:57:57;;;;;;;;;;;;;;;;;;5016275;28;4524;-61
2023/10/27 13:00:27;;;;;;;;;;;;;;;;;;5009143;28;4746;-60
2023/10/27 13:02:53;;;;;;;;;;;;;;;;;;5006545;28;5097;-61
2023/10/27 13:05:19;;;;;;;;;;;;;;;;;;5007950;28;1233;-61
2023/10/27 13:07:45;;;;;;;;;;;;;;;;;;5005472;28;5112;-61
2023/10/27 13:10:10;;;;;;;;;;;;;;;;;;5021015;28;5072;-61
2023/10/27 13:12:37;;;;;;;;;;;;;;;;;;5005963;28;4624;-61
2023/10/27 13:15:03;;;;;;;;;;;;;;;;;;5013045;28;4502;-62
2023/10/27 13:17:29;;;;;;;;;;;;;;;;;;5033070;28;1059;-61
2023/10/27 13:19:55;;;;;;;;;;;;;;;;;;5024331;28;4569;-61
2023/10/27 13:22:25;;;;;;;;;;;;;;;;;;5013101;28;4584;-63
2023/10/27 13:24:50;;;;;;;;;;;;;;;;;;5016731;28;4942;-61
2023/10/27 13:27:16;;;;;;;;;;;;;;;;;;5053743;28;4999;-61
2023/10/27 13:38:49;;;;;;;;;;;;;;;;;;5034211;28;611;-67
2023/10/27 13:41:20;;;;;;;;;;;;;;;;;;5033944;28;4376;-66
2023/10/27 13:43:46;;;;;;;;;;;;;;;;;;5037818;28;4970;-67
2023/10/27 13:46:14;;;;;;;;;;;;;;;;;;5037892;28;5028;-66
2023/10/27 13:51:43;;;;;;;;;;;;;;;;;;5037152;28;4816;-67
2023/10/27 13:57:11;;;;;;;;;;;;;;;;;;5037872;28;4639;-66
2023/10/27 13:59:36;;;;;;;;;;;;;;;;;;5037750;28;1981;-66
2023/10/27 14:02:02;;;;;;;;;;;;;;;;;;5037684;28;4630;-64
2023/10/27 14:04:27;;;;;;;;;;;;;;;;;;5052625;28;5090;-64
2023/10/27 14:06:53;;;;;;;;;;;;;;;;;;5037448;28;5077;-64
2023/10/27 14:09:19;;;;;;;;;;;;;;;;;;5027059;28;5141;-64
2023/10/27 14:11:47;;;;;;;;;;;;;;;;;;5010783;28;2807;-62
2023/10/27 14:14:13;;;;;;;;;;;;;;;;;;5015582;28;4924;-63
2023/10/27 14:16:38;;;;;;;;;;;;;;;;;;5031266;28;5537;-63
2023/10/27 14:19:04;;;;;;;;;;;;;;;;;;5030863;28;4697;-62
2023/10/27 14:21:31;;;;;;;;;;;;;;;;;;5015522;28;5181;-61
2023/10/27 14:23:57;;;;;;;;;;;;;;;;;;5024773;28;5139;-61
2023/10/27 14:32:27;;;;;;;;;;;;;;;;;;5018031;28;4804;-57
2023/10/27 14:34:53;;;;;;;;;;;;;;;;;;5016956;28;4992;-60
2023/10/27 14:37:19;;;;;;;;;;;;;;;;;;5034021;28;5205;-58
2023/10/27 14:39:45;;;;;;;;;;;;;;;;;;5036599;28;4615;-58
2023/10/27 14:45:14;;;;;;;;;;;;;;;;;;5036742;28;4613;-58
2023/10/27 14:50:42;;;;;;;;;;;;;;;;;;5036845;28;4514;-58
2023/10/27 14:56:10;;;;;;;;;;;;;;;;;;5036893;28;4595;-58
2023/10/27 14:58:35;;;;;;;;;;;;;;;;;;5034961;28;4430;-58
2023/10/27 15:01:02;;;;;;;;;;;;;;;;;;5036582;28;5042;-59
2023/10/27 15:03:27;;;;;;;;;;;;;;;;;;5036302;28;4817;-58
2023/10/27 15:08:55;;;;;;;;;;;;;;;;;;5036190;28;5028;-59
2023/10/27 15:11:20;;;;;;;;;;;;;;;;;;5036560;28;1083;-58
2023/10/27 15:13:48;;;;;;;;;;;;;;;;;;5025382;28;4421;-59
2023/10/27 15:16:16;;;;;;;;;;;;;;;;;;4998994;28;4447;-59
2023/10/27 15:21:44;;;;;;;;;;;;;;;;;;5016523;28;5053;-59
2023/10/27 15:27:12;;;;;;;;;;;;;;;;;;5016210;28;4371;-59
2023/10/27 15:29:37;;;;;;;;;;;;;;;;;;5011546;28;5019;-59
2023/10/27 15:32:03;;;;;;;;;;;;;;;;;;5009585;28;4625;-60
2023/10/27 15:34:28;;;;;;;;;;;;;;;;;;5013842;28;5022;-58
2023/10/27 15:39:56;;;;;;;;;;;;;;;;;;5015867;28;5006;-59
2023/10/27 15:42:21;;;;;;;;;;;;;;;;;;5015659;28;4999;-59
2023/10/27 15:44:48;;;;;;;;;;;;;;;;;;5021905;28;1154;-59
2023/10/27 15:47:14;;;;;;;;;;;;;;;;;;5014917;28;4978;-59
2023/10/27 15:52:50;;;;;;;;;;;;;;;;;;5015764;28;5060;-60
2023/10/27 15:58:18;;;;;;;;;;;;;;;;;;5012130;28;4677;-59
2023/10/27 16:00:45;;;;;;;;;;;;;;;;;;5015132;28;5069;-59
2023/10/27 16:03:10;;;;;;;;;;;;;;;;;;5011275;28;5187;-59
2023/10/27 16:05:36;;;;;;;;;;;;;;;;;;5011420;28;1197;-59
2023/10/27 16:08:15;;;;;;;;;;;;;;;;;;5009778;28;4989;-59
2023/10/27 16:16:40;;;;;;;;;;;;;;;;;;5015298;28;5009;-60
2023/10/27 16:28:13;;;;;;;;;;;;;;;;;;5027727;28;5128;-58
2023/10/27 16:33:53;;;;;;;;;;;;;;;;;;5027106;28;4996;-58
2023/10/27 16:36:19;;;;;;;;;;;;;;;;;;5006929;28;5186;-61
2023/10/27 16:38:48;;;;;;;;;;;;;;;;;;5026825;28;1223;-60
2023/10/27 16:41:13;;;;;;;;;;;;;;;;;;5011033;28;4914;-60
2023/10/27 16:43:44;;;;;;;;;;;;;;;;;;5010791;28;5083;-60
2023/10/27 16:46:09;;;;;;;;;;;;;;;;;;5010551;28;5046;-60
2023/10/27 16:48:35;;;;;;;;;;;;;;;;;;5030800;28;5072;-60
2023/10/27 16:51:07;;;;;;;;;;;;;;;;;;5028165;28;4966;-60
2023/10/27 16:53:32;;;;;;;;;;;;;;;;;;5021240;28;1463;-60
2023/10/27 16:55:57;;;;;;;;;;;;;;;;;;5010145;28;5072;-61
2023/10/27 16:58:22;;;;;;;;;;;;;;;;;;5011637;28;4980;-60
2023/10/27 17:01:16;;;;;;;;;;;;;;;;;;5012462;28;5098;-60
2023/10/27 17:03:42;;;;;;;;;;;;;;;;;;5013621;28;4606;-60
2023/10/27 17:06:09;;;;;;;;;;;;;;;;;;5014476;28;4960;-60
2023/10/27 17:08:34;;;;;;;;;;;;;;;;;;5024577;28;1005;-60
2023/10/27 17:14:02;;;;;;;;;;;;;;;;;;5011431;28;5059;-60
2023/10/27 17:16:50;;;;;;;;;;;;;;;;;;5012117;28;4441;-60
2023/10/27 17:19:15;;;;;;;;;;;;;;;;;;5013252;28;6172;-60
2023/10/27 17:21:41;;;;;;;;;;;;;;;;;;5014000;28;4961;-60
2023/10/27 17:27:12;;;;;;;;;;;;;;;;;;5012127;28;5243;-60
2023/10/27 17:29:38;;;;;;;;;;;;;;;;;;5013979;28;1327;-58
2023/10/27 17:32:04;;;;;;;;;;;;;;;;;;5017252;28;4747;-60
2023/10/27 17:40:36;;;;;;;;;;;;;;;;;;5012303;28;5102;-60
2023/10/27 17:46:04;;;;;;;;;;;;;;;;;;5014531;28;5160;-60
2023/10/27 17:48:29;;;;;;;;;;;;;;;;;;4996038;28;5149;-60
2023/10/27 17:50:58;;;;;;;;;;;;;;;;;;5012842;28;4669;-59
2023/10/27 17:56:26;;;;;;;;;;;;;;;;;;5010765;28;4749;-60
2023/10/27 18:02:07;;;;;;;;;;;;;;;;;;5011071;28;4603;-60
2023/10/27 18:07:41;;;;;;;;;;;;;;;;;;5016167;28;5113;-59
2023/10/27 18:10:14;;;;;;;;;;;;;;;;;;5022488;28;4894;-59
2023/10/27 18:12:40;;;;;;;;;;;;;;;;;;5009188;28;5260;-61
2023/10/27 18:15:05;;;;;;;;;;;;;;;;;;5007386;28;5092;-59
2023/10/27 18:17:37;;;;;;;;;;;;;;;;;;5008774;28;1261;-59
2023/10/27 18:20:26;;;;;;;;;;;;;;;;;;5009606;28;5739;-59
2023/10/27 18:22:52;;;;;;;;;;;;;;;;;;5008074;28;5102;-58
2023/10/27 18:25:17;;;;;;;;;;;;;;;;;;5007659;28;4992;-59
2023/10/27 18:27:43;;;;;;;;;;;;;;;;;;5012854;28;5074;-59
2023/10/27 18:30:40;;;;;;;;;;;;;;;;;;5016287;28;4492;-59
2023/10/27 18:33:09;;;;;;;;;;;;;;;;;;5010833;28;4455;-59
2023/10/27 18:38:39;;;;;;;;;;;;;;;;;;5015529;28;4563;-58
2023/10/27 18:41:06;;;;;;;;;;;;;;;;;;5026589;28;5063;-59
2023/10/27 18:43:36;;;;;;;;;;;;;;;;;;5030371;28;5063;-58
2023/10/27 18:46:34;;;;;;;;;;;;;;;;;;5032614;28;4593;-59
2023/10/27 18:49:00;;;;;;;;;;;;;;;;;;5016487;28;5513;-59
2023/10/27 18:51:28;;;;;;;;;;;;;;;;;;5016843;28;4444;-59
2023/10/27 18:56:58;;;;;;;;;;;;;;;;;;5007851;28;5138;-59
2023/10/27 18:59:27;;;;;;;;;;;;;;;;;;5011712;28;1911;-58
2023/10/27 19:01:52;;;;;;;;;;;;;;;;;;5009680;28;4776;-58
2023/10/27 19:04:19;;;;;;;;;;;;;;;;;;5008943;28;5094;-58
2023/10/27 19:06:45;;;;;;;;;;;;;;;;;;5011665;28;4558;-59
2023/10/27 19:09:12;;;;;;;;;;;;;;;;;;5009855;28;5063;-58
2023/10/27 19:11:39;;;;;;;;;;;;;;;;;;5016529;28;986;-58
2023/10/27 19:14:06;;;;;;;;;;;;;;;;;;5012399;28;4952;-60
2023/10/27 19:16:39;;;;;;;;;;;;;;;;;;4996863;28;4677;-58
2023/10/27 19:19:14;;;;;;;;;;;;;;;;;;5015509;28;4752;-58
2023/10/27 19:25:06;;;;;;;;;;;;;;;;;;5007336;28;4426;-60
2023/10/27 19:28:06;;;;;;;;;;;;;;;;;;5010031;28;4674;-58
2023/10/27 19:30:43;;;;;;;;;;;;;;;;;;5010109;28;4798;-59
2023/10/27 19:33:09;;;;;;;;;;;;;;;;;;5026388;28;4698;-59
2023/10/27 19:35:34;;;;;;;;;;;;;;;;;;5012395;28;1125;-59
2023/10/27 19:41:04;;;;;;;;;;;;;;;;;;5031615;28;5239;-60
2023/10/27 19:43:29;;;;;;;;;;;;;;;;;;5028083;28;4678;-60
2023/10/27 19:45:55;;;;;;;;;;;;;;;;;;5014191;28;4756;-60
2023/10/27 19:51:35;;;;;;;;;;;;;;;;;;5017186;28;5156;-60
2023/10/27 19:57:30;;;;;;;;;;;;;;;;;;5020565;28;5104;-60
2023/10/27 19:59:57;;;;;;;;;;;;;;;;;;5009407;28;5106;-60
2023/10/27 20:02:22;;;;;;;;;;;;;;;;;;5007202;28;3161;-58
2023/10/27 20:04:47;;;;;;;;;;;;;;;;;;5006754;28;5120;-60
2023/10/27 20:16:39;;;;;;;;;;;;;;;;;;5015850;28;4594;-57
2023/10/27 20:19:05;;;;;;;;;;;;;;;;;;5012536;28;4999;-58
2023/10/27 20:21:30;;;;;;;;;;;;;;;;;;5035020;28;4627;-57
2023/10/27 20:23:56;;;;;;;;;;;;;;;;;;5013798;28;5316;-61
2023/10/27 20:26:22;;;;;;;;;;;;;;;;;;5034506;28;1397;-58
2023/10/27 20:29:03;;;;;;;;;;;;;;;;;;5021842;28;4649;-58
2023/10/27 20:31:28;;;;;;;;;;;;;;;;;;5015539;28;5044;-58
2023/10/27 20:33:53;;;;;;;;;;;;;;;;;;5015210;28;5044;-58
2023/10/27 20:36:21;;;;;;;;;;;;;;;;;;5014052;28;5145;-58
2023/10/27 20:38:47;;;;;;;;;;;;;;;;;;5013766;28;1125;-58
2023/10/27 20:41:12;;;;;;;;;;;;;;;;;;5025280;28;4951;-58
2023/10/27 20:43:55;;;;;;;;;;;;;;;;;;5035450;28;5016;-58
2023/10/27 20:52:32;;;;;;;;;;;;;;;;;;5011331;28;5036;-57
2023/10/27 20:54:57;;;;;;;;;;;;;;;;;;5006478;28;4893;-59
2023/10/27 20:57:23;;;;;;;;;;;;;;;;;;5009374;28;4692;-59
2023/10/27 20:59:48;;;;;;;;;;;;;;;;;;5006581;28;1983;-58
2023/10/27 21:02:29;;;;;;;;;;;;;;;;;;4998177;28;5103;-57
2023/10/27 21:04:54;;;;;;;;;;;;;;;;;;5008270;28;4555;-57
2023/10/27 21:07:20;;;;;;;;;;;;;;;;;;5014368;28;4901;-59
2023/10/27 21:09:58;;;;;;;;;;;;;;;;;;5032588;28;4578;-59
2023/10/27 21:12:23;;;;;;;;;;;;;;;;;;5014803;28;5048;-59
2023/10/27 21:14:49;;;;;;;;;;;;;;;;;;4995694;28;1149;-58
2023/10/27 21:20:18;;;;;;;;;;;;;;;;;;4996090;28;4627;-59
2023/10/27 21:22:43;;;;;;;;;;;;;;;;;;5009083;28;4986;-59
2023/10/27 21:25:08;;;;;;;;;;;;;;;;;;5003270;28;4973;-58
2023/10/27 21:27:53;;;;;;;;;;;;;;;;;;5030936;28;5040;-59
2023/10/27 21:30:18;;;;;;;;;;;;;;;;;;4989990;28;4584;-58
2023/10/27 21:32:44;;;;;;;;;;;;;;;;;;4997474;28;1153;-57
2023/10/27 21:35:11;;;;;;;;;;;;;;;;;;5007073;28;4975;-58
2023/10/27 21:37:37;;;;;;;;;;;;;;;;;;5013856;28;4986;-62
2023/10/27 21:46:44;;;;;;;;;;;;;;;;;;5010118;28;5050;-58
2023/10/27 21:49:09;;;;;;;;;;;;;;;;;;5012806;28;4998;-58